sensor_id;sensor_type;location;lat;lon;timestamp;temperature;humidity
61398;DHT22;47267;48.130;-2.040;2023-05-29T00:00:13;23.30;55.70
61398;DHT22;47267;48.130;-2.040;2023-05-29T00:02:41;23.30;55.60
61398;DHT22;47267;48.130;-2.040;2023-05-29T00:05:10;23.30;55.70
61398;DHT22;47267;48.130;-2.040;2023-05-29T00:07:37;23.30;55.60
61398;DHT22;47267;48.130;-2.040;2023-05-29T00:10:03;23.20;55.60
61398;DHT22;47267;48.130;-2.040;2023-05-29T00:12:29;23.20;55.60
61398;DHT22;47267;48.130;-2.040;2023-05-29T00:14:55;23.20;55.60
61398;DHT22;47267;48.130;-2.040;2023-05-29T00:17:21;23.20;55.60
61398;DHT22;47267;48.130;-2.040;2023-05-29T00:19:47;23.20;55.60
61398;DHT22;47267;48.130;-2.040;2023-05-29T00:22:12;23.20;55.50
61398;DHT22;47267;48.130;-2.040;2023-05-29T00:24:38;23.20;55.60
61398;DHT22;47267;48.130;-2.040;2023-05-29T00:27:04;23.20;55.60
61398;DHT22;47267;48.130;-2.040;2023-05-29T00:29:30;23.20;55.50
61398;DHT22;47267;48.130;-2.040;2023-05-29T00:31:56;23.20;55.50
61398;DHT22;47267;48.130;-2.040;2023-05-29T00:34:25;23.20;55.50
61398;DHT22;47267;48.130;-2.040;2023-05-29T00:36:52;23.20;55.50
61398;DHT22;47267;48.130;-2.040;2023-05-29T00:39:18;23.20;55.50
61398;DHT22;47267;48.130;-2.040;2023-05-29T00:41:44;23.10;55.50
61398;DHT22;47267;48.130;-2.040;2023-05-29T00:44:09;23.10;55.40
61398;DHT22;47267;48.130;-2.040;2023-05-29T00:46:36;23.10;55.40
61398;DHT22;47267;48.130;-2.040;2023-05-29T00:49:02;23.10;55.40
61398;DHT22;47267;48.130;-2.040;2023-05-29T00:51:29;23.10;55.40
61398;DHT22;47267;48.130;-2.040;2023-05-29T00:53:57;23.10;55.50
61398;DHT22;47267;48.130;-2.040;2023-05-29T00:56:23;23.10;55.40
61398;DHT22;47267;48.130;-2.040;2023-05-29T00:58:50;23.10;55.40
61398;DHT22;47267;48.130;-2.040;2023-05-29T01:01:18;23.10;55.90
61398;DHT22;47267;48.130;-2.040;2023-05-29T01:03:44;23.10;55.40
61398;DHT22;47267;48.130;-2.040;2023-05-29T01:06:10;23.10;55.40
61398;DHT22;47267;48.130;-2.040;2023-05-29T01:08:36;23.10;55.40
61398;DHT22;47267;48.130;-2.040;2023-05-29T01:13:47;23.10;55.40
61398;DHT22;47267;48.130;-2.040;2023-05-29T01:16:25;23.10;55.40
61398;DHT22;47267;48.130;-2.040;2023-05-29T01:22:12;23.00;55.30
61398;DHT22;47267;48.130;-2.040;2023-05-29T01:24:50;23.00;55.30
61398;DHT22;47267;48.130;-2.040;2023-05-29T01:27:21;23.00;55.30
61398;DHT22;47267;48.130;-2.040;2023-05-29T01:29:51;23.00;55.30
61398;DHT22;47267;48.130;-2.040;2023-05-29T01:32:17;23.00;55.30
61398;DHT22;47267;48.130;-2.040;2023-05-29T01:34:43;23.00;55.30
61398;DHT22;47267;48.130;-2.040;2023-05-29T01:37:09;23.00;55.30
61398;DHT22;47267;48.130;-2.040;2023-05-29T01:39:35;23.00;55.30
61398;DHT22;47267;48.130;-2.040;2023-05-29T01:42:02;23.00;55.30
61398;DHT22;47267;48.130;-2.040;2023-05-29T01:44:28;23.00;55.30
61398;DHT22;47267;48.130;-2.040;2023-05-29T01:46:54;22.90;55.20
61398;DHT22;47267;48.130;-2.040;2023-05-29T01:49:21;22.90;55.20
61398;DHT22;47267;48.130;-2.040;2023-05-29T01:51:48;22.90;55.20
61398;DHT22;47267;48.130;-2.040;2023-05-29T01:54:14;22.90;55.20
61398;DHT22;47267;48.130;-2.040;2023-05-29T01:56:41;22.90;55.20
61398;DHT22;47267;48.130;-2.040;2023-05-29T01:59:08;22.90;55.20
61398;DHT22;47267;48.130;-2.040;2023-05-29T02:01:34;22.90;55.20
61398;DHT22;47267;48.130;-2.040;2023-05-29T02:04:00;22.90;55.20
61398;DHT22;47267;48.130;-2.040;2023-05-29T02:06:25;22.90;55.20
61398;DHT22;47267;48.130;-2.040;2023-05-29T02:08:51;22.90;55.20
61398;DHT22;47267;48.130;-2.040;2023-05-29T02:11:17;22.80;55.10
61398;DHT22;47267;48.130;-2.040;2023-05-29T02:13:42;22.80;55.10
61398;DHT22;47267;48.130;-2.040;2023-05-29T02:16:08;22.80;55.10
61398;DHT22;47267;48.130;-2.040;2023-05-29T02:18:34;22.80;55.10
61398;DHT22;47267;48.130;-2.040;2023-05-29T02:21:02;22.80;55.50
61398;DHT22;47267;48.130;-2.040;2023-05-29T02:23:28;22.80;55.10
61398;DHT22;47267;48.130;-2.040;2023-05-29T02:25:53;22.80;55.10
61398;DHT22;47267;48.130;-2.040;2023-05-29T02:28:19;22.80;55.10
61398;DHT22;47267;48.130;-2.040;2023-05-29T02:30:45;22.80;55.10
61398;DHT22;47267;48.130;-2.040;2023-05-29T02:33:11;22.70;55.00
61398;DHT22;47267;48.130;-2.040;2023-05-29T02:35:36;22.80;55.00
61398;DHT22;47267;48.130;-2.040;2023-05-29T02:38:02;22.80;55.00
61398;DHT22;47267;48.130;-2.040;2023-05-29T02:40:27;22.70;55.60
61398;DHT22;47267;48.130;-2.040;2023-05-29T02:42:53;22.70;55.00
61398;DHT22;47267;48.130;-2.040;2023-05-29T02:45:19;22.80;55.00
61398;DHT22;47267;48.130;-2.040;2023-05-29T02:47:45;22.70;55.00
61398;DHT22;47267;48.130;-2.040;2023-05-29T02:50:11;22.70;55.00
61398;DHT22;47267;48.130;-2.040;2023-05-29T02:52:36;22.70;55.00
61398;DHT22;47267;48.130;-2.040;2023-05-29T02:55:03;22.70;55.00
61398;DHT22;47267;48.130;-2.040;2023-05-29T02:57:29;22.70;55.00
61398;DHT22;47267;48.130;-2.040;2023-05-29T02:59:55;22.70;55.00
61398;DHT22;47267;48.130;-2.040;2023-05-29T03:02:20;22.70;55.00
61398;DHT22;47267;48.130;-2.040;2023-05-29T03:04:46;22.70;55.00
61398;DHT22;47267;48.130;-2.040;2023-05-29T03:07:15;22.60;54.90
61398;DHT22;47267;48.130;-2.040;2023-05-29T03:09:41;22.60;54.90
61398;DHT22;47267;48.130;-2.040;2023-05-29T03:12:06;22.60;55.50
61398;DHT22;47267;48.130;-2.040;2023-05-29T03:14:32;22.60;54.90
61398;DHT22;47267;48.130;-2.040;2023-05-29T03:17:04;22.60;55.50
61398;DHT22;47267;48.130;-2.040;2023-05-29T03:19:31;22.60;54.90
61398;DHT22;47267;48.130;-2.040;2023-05-29T03:21:56;22.60;54.90
61398;DHT22;47267;48.130;-2.040;2023-05-29T03:24:22;22.60;54.90
61398;DHT22;47267;48.130;-2.040;2023-05-29T03:26:49;22.60;54.90
61398;DHT22;47267;48.130;-2.040;2023-05-29T03:29:16;22.60;54.90
61398;DHT22;47267;48.130;-2.040;2023-05-29T03:31:42;22.50;54.90
61398;DHT22;47267;48.130;-2.040;2023-05-29T03:34:07;22.50;54.80
61398;DHT22;47267;48.130;-2.040;2023-05-29T03:36:33;22.50;54.80
61398;DHT22;47267;48.130;-2.040;2023-05-29T03:39:02;22.50;54.80
61398;DHT22;47267;48.130;-2.040;2023-05-29T03:41:28;22.50;54.80
61398;DHT22;47267;48.130;-2.040;2023-05-29T03:43:53;22.50;54.80
61398;DHT22;47267;48.130;-2.040;2023-05-29T03:46:19;22.50;54.90
61398;DHT22;47267;48.130;-2.040;2023-05-29T03:48:45;22.50;55.40
61398;DHT22;47267;48.130;-2.040;2023-05-29T03:51:11;22.50;54.80
61398;DHT22;47267;48.130;-2.040;2023-05-29T03:53:37;22.50;54.80
61398;DHT22;47267;48.130;-2.040;2023-05-29T03:56:02;22.50;54.80
61398;DHT22;47267;48.130;-2.040;2023-05-29T03:58:28;22.40;54.70
61398;DHT22;47267;48.130;-2.040;2023-05-29T04:00:54;22.40;54.70
61398;DHT22;47267;48.130;-2.040;2023-05-29T04:03:19;22.40;54.70
61398;DHT22;47267;48.130;-2.040;2023-05-29T04:05:45;22.40;55.30
61398;DHT22;47267;48.130;-2.040;2023-05-29T04:08:11;22.40;54.70
61398;DHT22;47267;48.130;-2.040;2023-05-29T04:10:38;22.40;54.70
61398;DHT22;47267;48.130;-2.040;2023-05-29T04:13:04;22.40;54.70
61398;DHT22;47267;48.130;-2.040;2023-05-29T04:15:31;22.40;54.70
61398;DHT22;47267;48.130;-2.040;2023-05-29T04:17:58;22.30;54.60
61398;DHT22;47267;48.130;-2.040;2023-05-29T04:20:24;22.40;54.70
61398;DHT22;47267;48.130;-2.040;2023-05-29T04:22:51;22.30;54.60
61398;DHT22;47267;48.130;-2.040;2023-05-29T04:25:17;22.30;54.70
61398;DHT22;47267;48.130;-2.040;2023-05-29T04:27:44;22.30;54.60
61398;DHT22;47267;48.130;-2.040;2023-05-29T04:30:14;22.30;54.60
61398;DHT22;47267;48.130;-2.040;2023-05-29T04:32:41;22.30;54.60
61398;DHT22;47267;48.130;-2.040;2023-05-29T04:35:07;22.30;54.60
61398;DHT22;47267;48.130;-2.040;2023-05-29T04:37:33;22.30;54.60
61398;DHT22;47267;48.130;-2.040;2023-05-29T04:40:05;22.30;54.60
61398;DHT22;47267;48.130;-2.040;2023-05-29T04:42:37;22.30;54.60
61398;DHT22;47267;48.130;-2.040;2023-05-29T04:45:04;22.20;54.50
61398;DHT22;47267;48.130;-2.040;2023-05-29T04:47:30;22.20;54.60
61398;DHT22;47267;48.130;-2.040;2023-05-29T04:49:59;22.20;54.60
61398;DHT22;47267;48.130;-2.040;2023-05-29T04:52:25;22.20;54.50
61398;DHT22;47267;48.130;-2.040;2023-05-29T04:54:50;22.20;54.60
61398;DHT22;47267;48.130;-2.040;2023-05-29T04:57:16;22.20;54.60
61398;DHT22;47267;48.130;-2.040;2023-05-29T04:59:42;22.20;54.50
61398;DHT22;47267;48.130;-2.040;2023-05-29T05:02:07;22.20;54.60
61398;DHT22;47267;48.130;-2.040;2023-05-29T05:04:33;22.20;55.20
61398;DHT22;47267;48.130;-2.040;2023-05-29T05:06:59;22.20;54.60
61398;DHT22;47267;48.130;-2.040;2023-05-29T05:09:24;22.20;54.50
61398;DHT22;47267;48.130;-2.040;2023-05-29T05:11:50;22.10;54.50
61398;DHT22;47267;48.130;-2.040;2023-05-29T05:14:15;22.20;54.50
61398;DHT22;47267;48.130;-2.040;2023-05-29T05:16:41;22.10;54.50
61398;DHT22;47267;48.130;-2.040;2023-05-29T05:19:07;22.10;54.50
61398;DHT22;47267;48.130;-2.040;2023-05-29T05:21:32;22.10;54.50
61398;DHT22;47267;48.130;-2.040;2023-05-29T05:23:59;22.10;54.50
61398;DHT22;47267;48.130;-2.040;2023-05-29T05:26:25;22.10;54.50
61398;DHT22;47267;48.130;-2.040;2023-05-29T05:28:52;22.10;54.50
61398;DHT22;47267;48.130;-2.040;2023-05-29T05:31:17;22.10;54.50
61398;DHT22;47267;48.130;-2.040;2023-05-29T05:33:43;22.10;54.50
61398;DHT22;47267;48.130;-2.040;2023-05-29T05:36:09;22.10;54.50
61398;DHT22;47267;48.130;-2.040;2023-05-29T05:38:35;22.00;55.00
61398;DHT22;47267;48.130;-2.040;2023-05-29T05:41:01;22.00;54.50
61398;DHT22;47267;48.130;-2.040;2023-05-29T05:43:26;22.00;54.50
61398;DHT22;47267;48.130;-2.040;2023-05-29T05:45:52;22.00;54.50
61398;DHT22;47267;48.130;-2.040;2023-05-29T05:48:18;22.00;54.40
61398;DHT22;47267;48.130;-2.040;2023-05-29T05:50:44;22.00;54.40
61398;DHT22;47267;48.130;-2.040;2023-05-29T05:53:09;22.00;54.40
61398;DHT22;47267;48.130;-2.040;2023-05-29T05:55:35;22.00;54.40
61398;DHT22;47267;48.130;-2.040;2023-05-29T05:58:00;22.00;54.40
61398;DHT22;47267;48.130;-2.040;2023-05-29T06:00:26;22.00;54.40
61398;DHT22;47267;48.130;-2.040;2023-05-29T06:02:52;21.90;54.40
61398;DHT22;47267;48.130;-2.040;2023-05-29T06:05:17;22.00;54.40
61398;DHT22;47267;48.130;-2.040;2023-05-29T06:07:43;21.90;54.40
61398;DHT22;47267;48.130;-2.040;2023-05-29T06:10:09;21.90;54.40
61398;DHT22;47267;48.130;-2.040;2023-05-29T06:12:34;21.90;54.40
61398;DHT22;47267;48.130;-2.040;2023-05-29T06:15:01;21.90;54.40
61398;DHT22;47267;48.130;-2.040;2023-05-29T06:17:26;21.90;54.40
61398;DHT22;47267;48.130;-2.040;2023-05-29T06:19:52;21.90;54.40
61398;DHT22;47267;48.130;-2.040;2023-05-29T06:22:18;21.90;54.40
61398;DHT22;47267;48.130;-2.040;2023-05-29T06:24:44;21.90;54.40
61398;DHT22;47267;48.130;-2.040;2023-05-29T06:27:10;21.90;54.40
61398;DHT22;47267;48.130;-2.040;2023-05-29T06:29:36;21.90;54.40
61398;DHT22;47267;48.130;-2.040;2023-05-29T06:32:01;21.90;54.40
61398;DHT22;47267;48.130;-2.040;2023-05-29T06:34:27;21.80;54.30
61398;DHT22;47267;48.130;-2.040;2023-05-29T06:36:53;21.90;54.40
61398;DHT22;47267;48.130;-2.040;2023-05-29T06:39:18;21.80;54.30
61398;DHT22;47267;48.130;-2.040;2023-05-29T06:41:45;21.80;54.30
61398;DHT22;47267;48.130;-2.040;2023-05-29T06:44:11;21.80;54.30
61398;DHT22;47267;48.130;-2.040;2023-05-29T06:46:37;21.80;54.30
61398;DHT22;47267;48.130;-2.040;2023-05-29T06:49:02;21.80;54.30
61398;DHT22;47267;48.130;-2.040;2023-05-29T06:51:28;21.80;54.30
61398;DHT22;47267;48.130;-2.040;2023-05-29T06:53:54;21.80;54.30
61398;DHT22;47267;48.130;-2.040;2023-05-29T06:56:20;21.80;54.30
61398;DHT22;47267;48.130;-2.040;2023-05-29T06:58:47;21.80;54.30
61398;DHT22;47267;48.130;-2.040;2023-05-29T07:01:13;21.80;54.30
61398;DHT22;47267;48.130;-2.040;2023-05-29T07:03:38;21.80;54.30
61398;DHT22;47267;48.130;-2.040;2023-05-29T07:06:04;21.80;54.30
61398;DHT22;47267;48.130;-2.040;2023-05-29T07:08:30;21.70;54.30
61398;DHT22;47267;48.130;-2.040;2023-05-29T07:10:56;21.70;54.30
61398;DHT22;47267;48.130;-2.040;2023-05-29T07:13:21;21.70;54.30
61398;DHT22;47267;48.130;-2.040;2023-05-29T07:15:50;21.70;54.30
61398;DHT22;47267;48.130;-2.040;2023-05-29T07:18:16;21.70;54.30
61398;DHT22;47267;48.130;-2.040;2023-05-29T07:20:44;21.70;54.30
61398;DHT22;47267;48.130;-2.040;2023-05-29T07:23:11;21.70;54.30
61398;DHT22;47267;48.130;-2.040;2023-05-29T07:25:38;21.70;54.30
61398;DHT22;47267;48.130;-2.040;2023-05-29T07:28:06;21.70;54.30
61398;DHT22;47267;48.130;-2.040;2023-05-29T07:30:33;21.70;54.30
61398;DHT22;47267;48.130;-2.040;2023-05-29T07:32:59;21.70;54.30
61398;DHT22;47267;48.130;-2.040;2023-05-29T07:35:25;21.70;54.30
61398;DHT22;47267;48.130;-2.040;2023-05-29T07:37:51;21.70;54.30
61398;DHT22;47267;48.130;-2.040;2023-05-29T07:40:18;21.70;54.30
61398;DHT22;47267;48.130;-2.040;2023-05-29T07:42:44;21.70;54.30
61398;DHT22;47267;48.130;-2.040;2023-05-29T07:45:09;21.70;54.30
61398;DHT22;47267;48.130;-2.040;2023-05-29T07:47:36;21.70;54.30
61398;DHT22;47267;48.130;-2.040;2023-05-29T07:50:02;21.60;54.30
61398;DHT22;47267;48.130;-2.040;2023-05-29T07:52:28;21.60;54.30
61398;DHT22;47267;48.130;-2.040;2023-05-29T07:54:53;21.60;54.30
61398;DHT22;47267;48.130;-2.040;2023-05-29T07:57:19;21.70;54.40
61398;DHT22;47267;48.130;-2.040;2023-05-29T07:59:45;21.70;54.40
61398;DHT22;47267;48.130;-2.040;2023-05-29T08:02:15;21.70;54.40
61398;DHT22;47267;48.130;-2.040;2023-05-29T08:04:41;21.70;54.40
61398;DHT22;47267;48.130;-2.040;2023-05-29T08:07:07;21.70;54.40
61398;DHT22;47267;48.130;-2.040;2023-05-29T08:09:33;21.70;54.40
61398;DHT22;47267;48.130;-2.040;2023-05-29T08:11:59;21.70;54.40
61398;DHT22;47267;48.130;-2.040;2023-05-29T08:14:26;21.70;54.50
61398;DHT22;47267;48.130;-2.040;2023-05-29T08:16:52;21.70;54.50
61398;DHT22;47267;48.130;-2.040;2023-05-29T08:19:17;21.70;54.50
61398;DHT22;47267;48.130;-2.040;2023-05-29T08:21:43;21.70;54.50
61398;DHT22;47267;48.130;-2.040;2023-05-29T08:24:08;21.70;54.50
61398;DHT22;47267;48.130;-2.040;2023-05-29T08:26:35;21.70;54.50
61398;DHT22;47267;48.130;-2.040;2023-05-29T08:29:01;21.80;54.60
61398;DHT22;47267;48.130;-2.040;2023-05-29T08:31:27;21.80;54.60
61398;DHT22;47267;48.130;-2.040;2023-05-29T08:33:53;21.80;54.70
61398;DHT22;47267;48.130;-2.040;2023-05-29T08:36:19;21.80;54.70
61398;DHT22;47267;48.130;-2.040;2023-05-29T08:38:49;21.80;54.70
61398;DHT22;47267;48.130;-2.040;2023-05-29T08:41:21;21.80;54.70
61398;DHT22;47267;48.130;-2.040;2023-05-29T08:43:49;21.80;54.80
61398;DHT22;47267;48.130;-2.040;2023-05-29T08:46:17;21.80;54.70
61398;DHT22;47267;48.130;-2.040;2023-05-29T08:48:43;21.90;54.80
61398;DHT22;47267;48.130;-2.040;2023-05-29T08:51:13;21.80;54.80
61398;DHT22;47267;48.130;-2.040;2023-05-29T08:53:40;21.90;54.90
61398;DHT22;47267;48.130;-2.040;2023-05-29T08:56:06;21.90;54.80
61398;DHT22;47267;48.130;-2.040;2023-05-29T08:58:32;21.90;54.90
61398;DHT22;47267;48.130;-2.040;2023-05-29T09:00:59;21.90;54.90
61398;DHT22;47267;48.130;-2.040;2023-05-29T09:03:25;21.90;54.90
61398;DHT22;47267;48.130;-2.040;2023-05-29T09:05:50;21.90;54.90
61398;DHT22;47267;48.130;-2.040;2023-05-29T09:08:16;21.90;54.90
61398;DHT22;47267;48.130;-2.040;2023-05-29T09:10:43;22.00;54.90
61398;DHT22;47267;48.130;-2.040;2023-05-29T09:13:09;22.00;55.00
61398;DHT22;47267;48.130;-2.040;2023-05-29T09:15:35;22.00;54.90
61398;DHT22;47267;48.130;-2.040;2023-05-29T09:18:04;22.00;54.90
61398;DHT22;47267;48.130;-2.040;2023-05-29T09:20:30;22.00;54.90
61398;DHT22;47267;48.130;-2.040;2023-05-29T09:23:00;22.00;54.90
61398;DHT22;47267;48.130;-2.040;2023-05-29T09:25:43;22.00;54.90
61398;DHT22;47267;48.130;-2.040;2023-05-29T09:28:09;22.00;55.00
61398;DHT22;47267;48.130;-2.040;2023-05-29T09:33:06;22.10;55.00
61398;DHT22;47267;48.130;-2.040;2023-05-29T09:35:48;22.10;55.00
61398;DHT22;47267;48.130;-2.040;2023-05-29T09:38:17;22.10;55.00
61398;DHT22;47267;48.130;-2.040;2023-05-29T09:40:43;22.10;55.00
61398;DHT22;47267;48.130;-2.040;2023-05-29T09:43:13;22.10;55.00
61398;DHT22;47267;48.130;-2.040;2023-05-29T09:45:47;22.10;55.00
61398;DHT22;47267;48.130;-2.040;2023-05-29T09:48:17;22.10;55.00
61398;DHT22;47267;48.130;-2.040;2023-05-29T09:50:44;22.10;55.00
61398;DHT22;47267;48.130;-2.040;2023-05-29T09:53:20;22.20;55.00
61398;DHT22;47267;48.130;-2.040;2023-05-29T09:55:47;22.20;55.00
61398;DHT22;47267;48.130;-2.040;2023-05-29T09:58:17;22.20;55.00
61398;DHT22;47267;48.130;-2.040;2023-05-29T10:00:44;22.20;55.00
61398;DHT22;47267;48.130;-2.040;2023-05-29T10:03:13;22.20;55.10
61398;DHT22;47267;48.130;-2.040;2023-05-29T10:05:40;22.20;55.10
61398;DHT22;47267;48.130;-2.040;2023-05-29T10:08:13;22.20;55.10
61398;DHT22;47267;48.130;-2.040;2023-05-29T10:10:44;22.20;55.10
61398;DHT22;47267;48.130;-2.040;2023-05-29T10:13:13;22.20;55.10
61398;DHT22;47267;48.130;-2.040;2023-05-29T10:15:50;22.20;55.00
61398;DHT22;47267;48.130;-2.040;2023-05-29T10:18:35;22.20;55.00
61398;DHT22;47267;48.130;-2.040;2023-05-29T10:21:02;22.20;55.10
61398;DHT22;47267;48.130;-2.040;2023-05-29T10:23:29;22.30;55.10
61398;DHT22;47267;48.130;-2.040;2023-05-29T10:26:01;22.30;55.10
61398;DHT22;47267;48.130;-2.040;2023-05-29T10:28:30;22.30;55.10
61398;DHT22;47267;48.130;-2.040;2023-05-29T10:31:03;22.30;55.10
61398;DHT22;47267;48.130;-2.040;2023-05-29T10:33:54;22.30;55.10
61398;DHT22;47267;48.130;-2.040;2023-05-29T10:36:22;22.30;55.20
61398;DHT22;47267;48.130;-2.040;2023-05-29T10:38:52;22.30;55.10
61398;DHT22;47267;48.130;-2.040;2023-05-29T10:41:30;22.30;55.20
61398;DHT22;47267;48.130;-2.040;2023-05-29T10:44:03;22.30;55.10
61398;DHT22;47267;48.130;-2.040;2023-05-29T10:49:20;22.30;55.10
61398;DHT22;47267;48.130;-2.040;2023-05-29T10:51:47;22.40;55.20
61398;DHT22;47267;48.130;-2.040;2023-05-29T10:54:13;22.40;55.20
61398;DHT22;47267;48.130;-2.040;2023-05-29T10:56:40;22.40;55.20
61398;DHT22;47267;48.130;-2.040;2023-05-29T10:59:08;22.40;55.20
61398;DHT22;47267;48.130;-2.040;2023-05-29T11:01:38;22.40;55.20
61398;DHT22;47267;48.130;-2.040;2023-05-29T11:06:51;22.50;55.20
61398;DHT22;47267;48.130;-2.040;2023-05-29T11:09:37;22.40;55.20
61398;DHT22;47267;48.130;-2.040;2023-05-29T11:12:25;22.40;55.20
61398;DHT22;47267;48.130;-2.040;2023-05-29T11:15:07;22.50;55.20
61398;DHT22;47267;48.130;-2.040;2023-05-29T11:20:07;22.50;55.20
61398;DHT22;47267;48.130;-2.040;2023-05-29T11:25:14;22.60;55.30
61398;DHT22;47267;48.130;-2.040;2023-05-29T11:27:41;22.60;55.30
61398;DHT22;47267;48.130;-2.040;2023-05-29T11:30:08;22.60;55.30
61398;DHT22;47267;48.130;-2.040;2023-05-29T11:32:34;22.60;55.30
61398;DHT22;47267;48.130;-2.040;2023-05-29T11:35:09;22.60;55.30
61398;DHT22;47267;48.130;-2.040;2023-05-29T11:37:38;22.60;55.30
61398;DHT22;47267;48.130;-2.040;2023-05-29T11:40:06;22.60;55.30
61398;DHT22;47267;48.130;-2.040;2023-05-29T11:42:33;22.60;55.30
61398;DHT22;47267;48.130;-2.040;2023-05-29T11:45:16;22.70;55.30
61398;DHT22;47267;48.130;-2.040;2023-05-29T11:47:54;22.60;55.30
61398;DHT22;47267;48.130;-2.040;2023-05-29T11:50:27;22.60;55.30
61398;DHT22;47267;48.130;-2.040;2023-05-29T11:52:55;22.70;55.30
61398;DHT22;47267;48.130;-2.040;2023-05-29T11:55:22;22.70;55.30
61398;DHT22;47267;48.130;-2.040;2023-05-29T11:57:52;22.70;55.30
61398;DHT22;47267;48.130;-2.040;2023-05-29T12:00:21;22.70;55.30
61398;DHT22;47267;48.130;-2.040;2023-05-29T12:02:48;22.70;55.30
61398;DHT22;47267;48.130;-2.040;2023-05-29T12:05:16;22.70;55.30
61398;DHT22;47267;48.130;-2.040;2023-05-29T12:07:54;22.70;55.30
61398;DHT22;47267;48.130;-2.040;2023-05-29T12:10:22;22.70;55.30
61398;DHT22;47267;48.130;-2.040;2023-05-29T12:15:18;22.80;55.30
61398;DHT22;47267;48.130;-2.040;2023-05-29T12:17:48;22.80;55.40
61398;DHT22;47267;48.130;-2.040;2023-05-29T12:20:14;22.80;55.40
61398;DHT22;47267;48.130;-2.040;2023-05-29T12:22:42;22.80;55.40
61398;DHT22;47267;48.130;-2.040;2023-05-29T12:25:12;22.80;55.30
61398;DHT22;47267;48.130;-2.040;2023-05-29T12:27:39;22.80;55.30
61398;DHT22;47267;48.130;-2.040;2023-05-29T12:30:19;22.80;55.30
61398;DHT22;47267;48.130;-2.040;2023-05-29T12:32:47;22.90;55.40
61398;DHT22;47267;48.130;-2.040;2023-05-29T12:37:44;22.90;55.40
61398;DHT22;47267;48.130;-2.040;2023-05-29T12:40:18;22.90;55.40
61398;DHT22;47267;48.130;-2.040;2023-05-29T12:42:45;22.90;55.40
61398;DHT22;47267;48.130;-2.040;2023-05-29T12:45:12;22.90;55.40
61398;DHT22;47267;48.130;-2.040;2023-05-29T12:47:37;22.90;55.40
61398;DHT22;47267;48.130;-2.040;2023-05-29T12:50:26;22.90;55.40
61398;DHT22;47267;48.130;-2.040;2023-05-29T12:55:21;23.00;55.40
61398;DHT22;47267;48.130;-2.040;2023-05-29T12:57:47;23.00;55.50
61398;DHT22;47267;48.130;-2.040;2023-05-29T13:00:13;23.00;55.50
61398;DHT22;47267;48.130;-2.040;2023-05-29T13:02:39;23.00;55.50
61398;DHT22;47267;48.130;-2.040;2023-05-29T13:05:06;23.00;55.50
61398;DHT22;47267;48.130;-2.040;2023-05-29T13:07:33;23.00;55.50
61398;DHT22;47267;48.130;-2.040;2023-05-29T13:09:59;23.00;55.50
61398;DHT22;47267;48.130;-2.040;2023-05-29T13:12:27;23.00;55.50
61398;DHT22;47267;48.130;-2.040;2023-05-29T13:14:53;23.00;55.60
61398;DHT22;47267;48.130;-2.040;2023-05-29T13:17:21;23.10;55.60
61398;DHT22;47267;48.130;-2.040;2023-05-29T13:19:47;23.10;55.60
61398;DHT22;47267;48.130;-2.040;2023-05-29T13:22:13;23.10;55.60
61398;DHT22;47267;48.130;-2.040;2023-05-29T13:24:38;23.10;55.60
61398;DHT22;47267;48.130;-2.040;2023-05-29T13:27:05;23.10;55.60
61398;DHT22;47267;48.130;-2.040;2023-05-29T13:29:31;23.10;55.70
61398;DHT22;47267;48.130;-2.040;2023-05-29T13:31:57;23.10;55.70
61398;DHT22;47267;48.130;-2.040;2023-05-29T13:34:23;23.10;55.70
61398;DHT22;47267;48.130;-2.040;2023-05-29T13:36:57;23.20;55.80
61398;DHT22;47267;48.130;-2.040;2023-05-29T13:39:22;23.10;55.70
61398;DHT22;47267;48.130;-2.040;2023-05-29T13:41:48;23.10;55.80
61398;DHT22;47267;48.130;-2.040;2023-05-29T13:44:14;23.20;55.80
61398;DHT22;47267;48.130;-2.040;2023-05-29T13:46:40;23.20;55.80
61398;DHT22;47267;48.130;-2.040;2023-05-29T13:49:05;23.20;55.90
61398;DHT22;47267;48.130;-2.040;2023-05-29T13:51:33;23.20;55.90
61398;DHT22;47267;48.130;-2.040;2023-05-29T13:53:59;23.20;55.90
61398;DHT22;47267;48.130;-2.040;2023-05-29T13:56:25;23.20;55.90
61398;DHT22;47267;48.130;-2.040;2023-05-29T13:58:52;23.20;55.90
61398;DHT22;47267;48.130;-2.040;2023-05-29T14:01:18;23.30;56.00
61398;DHT22;47267;48.130;-2.040;2023-05-29T14:03:45;23.30;56.00
61398;DHT22;47267;48.130;-2.040;2023-05-29T14:06:11;23.30;56.00
61398;DHT22;47267;48.130;-2.040;2023-05-29T14:08:37;23.30;56.00
61398;DHT22;47267;48.130;-2.040;2023-05-29T14:11:02;23.30;56.00
61398;DHT22;47267;48.130;-2.040;2023-05-29T14:13:28;23.30;56.00
61398;DHT22;47267;48.130;-2.040;2023-05-29T14:15:54;23.40;56.00
61398;DHT22;47267;48.130;-2.040;2023-05-29T14:18:22;23.40;56.10
61398;DHT22;47267;48.130;-2.040;2023-05-29T14:20:48;23.40;56.00
61398;DHT22;47267;48.130;-2.040;2023-05-29T14:23:17;23.40;56.10
61398;DHT22;47267;48.130;-2.040;2023-05-29T14:25:43;23.40;56.10
61398;DHT22;47267;48.130;-2.040;2023-05-29T14:28:09;23.40;56.10
61398;DHT22;47267;48.130;-2.040;2023-05-29T14:30:38;23.40;56.10
61398;DHT22;47267;48.130;-2.040;2023-05-29T14:33:04;23.50;56.20
61398;DHT22;47267;48.130;-2.040;2023-05-29T14:35:30;23.50;56.20
61398;DHT22;47267;48.130;-2.040;2023-05-29T14:37:57;23.50;56.20
61398;DHT22;47267;48.130;-2.040;2023-05-29T14:40:23;23.50;56.20
61398;DHT22;47267;48.130;-2.040;2023-05-29T14:42:49;23.60;56.30
61398;DHT22;47267;48.130;-2.040;2023-05-29T14:45:15;23.60;56.30
61398;DHT22;47267;48.130;-2.040;2023-05-29T14:47:41;23.60;56.30
61398;DHT22;47267;48.130;-2.040;2023-05-29T14:50:07;23.60;56.30
61398;DHT22;47267;48.130;-2.040;2023-05-29T14:52:33;23.70;56.30
61398;DHT22;47267;48.130;-2.040;2023-05-29T14:55:03;23.70;56.30
61398;DHT22;47267;48.130;-2.040;2023-05-29T14:57:29;23.70;56.30
61398;DHT22;47267;48.130;-2.040;2023-05-29T14:59:58;23.80;56.40
61398;DHT22;47267;48.130;-2.040;2023-05-29T15:02:23;23.80;56.40
61398;DHT22;47267;48.130;-2.040;2023-05-29T15:04:49;23.80;56.40
61398;DHT22;47267;48.130;-2.040;2023-05-29T15:07:15;23.90;56.40
61398;DHT22;47267;48.130;-2.040;2023-05-29T15:09:41;23.90;56.40
61398;DHT22;47267;48.130;-2.040;2023-05-29T15:12:08;23.90;56.40
61398;DHT22;47267;48.130;-2.040;2023-05-29T15:14:34;23.90;56.40
61398;DHT22;47267;48.130;-2.040;2023-05-29T15:17:00;24.00;56.50
61398;DHT22;47267;48.130;-2.040;2023-05-29T15:19:25;24.00;56.50
61398;DHT22;47267;48.130;-2.040;2023-05-29T15:21:51;24.00;56.50
61398;DHT22;47267;48.130;-2.040;2023-05-29T15:24:17;24.10;56.50
61398;DHT22;47267;48.130;-2.040;2023-05-29T15:26:43;24.10;56.50
61398;DHT22;47267;48.130;-2.040;2023-05-29T15:29:09;24.10;56.50
61398;DHT22;47267;48.130;-2.040;2023-05-29T15:31:37;24.10;56.50
61398;DHT22;47267;48.130;-2.040;2023-05-29T15:34:05;24.20;56.60
61398;DHT22;47267;48.130;-2.040;2023-05-29T15:36:35;24.20;56.50
61398;DHT22;47267;48.130;-2.040;2023-05-29T15:39:03;24.20;57.10
61398;DHT22;47267;48.130;-2.040;2023-05-29T15:41:36;24.30;56.60